createdAt,value
2022-12-01T00:01:57.075Z,96540.41
2022-12-01T00:04:23.476Z,96536.00
2022-12-01T00:06:49.759Z,96541.16
2022-12-01T00:09:19.702Z,96538.47
2022-12-01T00:11:46.400Z,96540.75
2022-12-01T00:14:12.701Z,96531.72
2022-12-01T00:16:39.115Z,96538.03
2022-12-01T00:19:05.478Z,96543.16
2022-12-01T00:21:31.793Z,96545.13
2022-12-01T00:23:58.088Z,96542.81
2022-12-01T00:26:24.405Z,96546.75
2022-12-01T00:28:50.705Z,96544.78
2022-12-01T00:31:17.139Z,96544.00
2022-12-01T00:33:43.600Z,96547.09
2022-12-01T00:36:09.905Z,96543.13
2022-12-01T00:38:36.212Z,96543.94
2022-12-01T00:41:02.520Z,96551.03
2022-12-01T00:43:28.839Z,96546.34
2022-12-01T00:45:55.223Z,96547.47
2022-12-01T00:48:21.568Z,96541.53
2022-12-01T00:50:47.855Z,96544.69
2022-12-01T00:53:14.139Z,96544.69
2022-12-01T00:55:40.454Z,96545.88
2022-12-01T00:58:06.758Z,96549.50
2022-12-01T01:00:33.076Z,96548.31
2022-12-01T01:02:59.397Z,96545.16
2022-12-01T01:05:25.712Z,96545.22
2022-12-01T01:07:52.059Z,96542.41
2022-12-01T01:10:18.409Z,96545.97
2022-12-01T01:12:44.707Z,96541.31
2022-12-01T01:15:11.003Z,96537.75
2022-12-01T01:17:37.306Z,96547.22
2022-12-01T01:20:03.595Z,96547.19
2022-12-01T01:22:29.889Z,96543.69
2022-12-01T01:24:56.203Z,96541.69
2022-12-01T01:27:22.500Z,96541.69
2022-12-01T01:29:48.920Z,96541.00
2022-12-01T01:32:15.400Z,96547.25
2022-12-01T01:34:41.699Z,96546.44
2022-12-01T01:37:07.999Z,96547.66
2022-12-01T01:39:34.348Z,96547.56
2022-12-01T01:42:00.635Z,96540.94
2022-12-01T01:44:26.933Z,96542.81
2022-12-01T01:46:53.255Z,96544.03
2022-12-01T01:49:19.544Z,96547.00
2022-12-01T01:51:45.844Z,96544.63
2022-12-01T01:54:12.155Z,96538.72
2022-12-01T01:56:38.463Z,96536.78
2022-12-01T01:59:04.781Z,96549.81
2022-12-01T02:01:31.249Z,96549.03
2022-12-01T02:03:57.665Z,96543.94
2022-12-01T02:06:23.974Z,96555.81
2022-12-01T02:08:50.293Z,96551.44
2022-12-01T02:11:16.603Z,96554.19
2022-12-01T02:13:42.907Z,96542.75
2022-12-01T02:16:09.222Z,96547.06
2022-12-01T02:18:35.526Z,96548.69
2022-12-01T02:21:01.837Z,96549.09
2022-12-01T02:23:28.159Z,96544.78
2022-12-01T02:25:54.447Z,96549.16
2022-12-01T02:28:20.746Z,96547.53
2022-12-01T02:30:47.085Z,96547.13
2022-12-01T02:33:13.447Z,96548.78
2022-12-01T02:35:39.745Z,96548.78
2022-12-01T02:38:06.067Z,96551.94
2022-12-01T02:40:32.363Z,96541.75
2022-12-01T02:42:58.663Z,96545.69
2022-12-01T02:45:25.019Z,96544.03
2022-12-01T02:47:51.316Z,96543.34
2022-12-01T02:50:17.613Z,96538.94
2022-12-01T02:52:43.928Z,96539.72
2022-12-01T02:55:10.226Z,96535.38
2022-12-01T02:57:36.537Z,96539.31
2022-12-01T03:00:02.848Z,96539.75
2022-12-01T03:02:29.183Z,96535.44
2022-12-01T03:04:55.535Z,96537.38
2022-12-01T03:07:21.931Z,96539.31
2022-12-01T03:09:48.511Z,96530.25
2022-12-01T03:12:15.016Z,96537.78
2022-12-01T03:14:41.335Z,96535.78
2022-12-01T03:17:07.646Z,96535.81
2022-12-01T03:19:33.967Z,96537.78
2022-12-01T03:22:00.308Z,96543.22
2022-12-01T03:24:26.602Z,96533.81
2022-12-01T03:26:52.916Z,96544.03
2022-12-01T03:29:19.239Z,96540.13
2022-12-01T03:31:45.604Z,96544.81
2022-12-01T03:34:11.993Z,96536.19
2022-12-01T03:36:38.310Z,96535.41
2022-12-01T03:39:04.611Z,96536.19
2022-12-01T03:41:30.909Z,96541.31
2022-12-01T03:43:57.243Z,96542.13
2022-12-01T03:46:23.626Z,96542.13
2022-12-01T03:48:50.040Z,96537.81
2022-12-01T03:51:16.407Z,96547.63
2022-12-01T03:53:42.713Z,96545.25
2022-12-01T03:56:09.167Z,96544.75
2022-12-01T03:58:35.491Z,96544.88
2022-12-01T04:01:01.789Z,96552.69
2022-12-01T04:03:28.093Z,96548.38
2022-12-01T04:05:54.476Z,96548.78
2022-12-01T04:08:20.771Z,96546.00
2022-12-01T04:10:47.077Z,96553.44
2022-12-01T04:13:13.410Z,96554.66
2022-12-01T04:15:39.786Z,96559.75
2022-12-01T04:18:06.143Z,96557.84
2022-12-01T04:20:32.468Z,96564.56
2022-12-01T04:22:58.756Z,96552.06
2022-12-01T04:25:25.096Z,96566.22
2022-12-01T04:27:51.405Z,96556.78
2022-12-01T04:30:17.705Z,96561.91
2022-12-01T04:32:44.010Z,96551.66
2022-12-01T04:35:10.348Z,96550.88
2022-12-01T04:37:36.656Z,96559.47
2022-12-01T04:40:02.984Z,96560.63
2022-12-01T04:42:29.309Z,96558.19
2022-12-01T04:44:55.612Z,96556.19
2022-12-01T04:47:21.920Z,96561.06
2022-12-01T04:49:48.462Z,96556.59
2022-12-01T04:52:14.912Z,96568.13
2022-12-01T04:54:41.212Z,96558.25
2022-12-01T04:57:07.577Z,96560.66
2022-12-01T04:59:33.879Z,96560.34
2022-12-01T05:02:00.282Z,96553.56
2022-12-01T05:04:26.642Z,96561.41
2022-12-01T05:06:52.950Z,96556.28
2022-12-01T05:09:19.254Z,96557.34
2022-12-01T05:11:45.585Z,96560.66
2022-12-01T05:14:11.885Z,96563.41
2022-12-01T05:16:38.253Z,96561.00
2022-12-01T05:19:04.635Z,96555.50
2022-12-01T05:21:30.940Z,96559.75
2022-12-01T05:23:57.246Z,96557.44
2022-12-01T05:26:23.582Z,96562.13
2022-12-01T05:28:49.899Z,96573.06
2022-12-01T05:31:16.225Z,96562.91
2022-12-01T05:33:42.578Z,96568.41
2022-12-01T05:36:08.879Z,96565.34
2022-12-01T05:38:35.182Z,96571.06
2022-12-01T05:41:01.504Z,96568.47
2022-12-01T05:43:29.551Z,96564.44
2022-12-01T05:45:56.189Z,96568.41
2022-12-01T05:48:22.602Z,96568.81
2022-12-01T05:50:48.913Z,96569.97
2022-12-01T05:53:15.221Z,96561.34
2022-12-01T05:55:41.668Z,96560.91
2022-12-01T05:58:07.969Z,96549.78
2022-12-01T06:00:34.277Z,96552.59
2022-12-01T06:03:00.657Z,96557.38
2022-12-01T06:05:27.068Z,96560.50
2022-12-01T06:07:53.408Z,96562.47
2022-12-01T06:10:19.754Z,96560.50
2022-12-01T06:12:46.063Z,96563.97
2022-12-01T06:15:12.372Z,96572.28
2022-12-01T06:17:40.400Z,96570.69
2022-12-01T06:20:06.911Z,96573.91
2022-12-01T06:22:33.218Z,96568.38
2022-12-01T06:24:59.545Z,96568.00
2022-12-01T06:27:25.838Z,96571.94
2022-12-01T06:29:52.499Z,96570.38
2022-12-01T06:32:19.320Z,96572.66
2022-12-01T06:34:45.628Z,96572.38
2022-12-01T06:37:11.938Z,96575.03
2022-12-01T06:39:38.265Z,96565.94
2022-12-01T06:42:04.565Z,96572.38
2022-12-01T06:44:30.863Z,96571.41
2022-12-01T06:46:57.187Z,96568.69
2022-12-01T06:49:23.507Z,96575.03
2022-12-01T06:51:49.826Z,96568.34
2022-12-01T06:54:16.149Z,96573.84
2022-12-01T06:56:42.460Z,96576.34
2022-12-01T06:59:08.939Z,96574.69
2022-12-01T07:01:35.653Z,96577.09
2022-12-01T07:04:02.026Z,96579.41
2022-12-01T07:06:28.331Z,96582.22
2022-12-01T07:08:54.694Z,96581.03
2022-12-01T07:11:21.001Z,96589.63
2022-12-01T07:13:47.317Z,96587.28
2022-12-01T07:16:13.693Z,96591.25
2022-12-01T07:18:40.045Z,96585.41
2022-12-01T07:21:06.349Z,96586.97
2022-12-01T07:23:32.665Z,96587.69
2022-12-01T07:25:58.978Z,96595.19
2022-12-01T07:28:25.284Z,96588.41
2022-12-01T07:30:51.661Z,96595.38
2022-12-01T07:33:17.988Z,96593.03
2022-12-01T07:35:44.294Z,96593.03
2022-12-01T07:38:10.610Z,96587.16
2022-12-01T07:40:36.903Z,96597.03
2022-12-01T07:43:03.211Z,96601.00
2022-12-01T07:45:29.546Z,96598.63
2022-12-01T07:47:55.857Z,96598.25
2022-12-01T07:50:22.173Z,96596.28
2022-12-01T07:52:48.513Z,96599.41
2022-12-01T07:55:14.814Z,96608.16
2022-12-01T07:57:41.126Z,96604.59
2022-12-01T08:00:07.460Z,96602.63
2022-12-01T08:02:33.783Z,96604.50
2022-12-01T08:05:00.113Z,96600.91
2022-12-01T08:07:29.863Z,96609.56
2022-12-01T08:09:56.411Z,96613.50
2022-12-01T08:12:22.735Z,96607.25
2022-12-01T08:14:49.100Z,96611.63
2022-12-01T08:17:15.403Z,96611.63
2022-12-01T08:19:41.706Z,96610.41
2022-12-01T08:22:08.047Z,96608.03
2022-12-01T08:24:34.358Z,96613.13
2022-12-01T08:27:00.658Z,96607.63
2022-12-01T08:29:26.970Z,96610.69
2022-12-01T08:31:53.281Z,96609.13
2022-12-01T08:34:19.631Z,96613.06
2022-12-01T08:36:45.939Z,96613.09
2022-12-01T08:39:12.257Z,96606.06
2022-12-01T08:41:38.561Z,96598.56
2022-12-01T08:44:04.889Z,96616.69
2022-12-01T08:46:31.263Z,96617.16
2022-12-01T08:48:58.070Z,96608.53
2022-12-01T08:51:24.617Z,96613.78
2022-12-01T08:53:50.911Z,96615.81
2022-12-01T08:56:17.287Z,96614.63
2022-12-01T08:58:43.608Z,96608.44
2022-12-01T09:01:09.926Z,96614.63
2022-12-01T09:03:36.234Z,96617.38
2022-12-01T09:06:02.566Z,96614.59
2022-12-01T09:08:28.873Z,96614.34
2022-12-01T09:10:55.184Z,96620.75
2022-12-01T09:13:21.505Z,96614.75
2022-12-01T09:15:47.963Z,96620.22
2022-12-01T09:18:14.272Z,96617.88
2022-12-01T09:20:40.619Z,96617.84
2022-12-01T09:23:06.930Z,96621.81
2022-12-01T09:25:33.248Z,96617.94
2022-12-01T09:27:59.582Z,96624.25
2022-12-01T09:30:25.946Z,96619.16
2022-12-01T09:32:52.294Z,96623.84
2022-12-01T09:35:23.121Z,96615.72
2022-12-01T09:37:49.793Z,96635.22
2022-12-01T09:40:16.125Z,96622.59
2022-12-01T09:42:42.463Z,96623.44
2022-12-01T09:45:10.101Z,96618.00
2022-12-01T09:47:36.407Z,96624.69
2022-12-01T09:50:02.732Z,96626.25
2022-12-01T09:52:29.038Z,96628.53
2022-12-01T09:54:55.408Z,96634.06
2022-12-01T09:57:21.733Z,96621.03
2022-12-01T09:59:48.323Z,96632.06
2022-12-01T10:02:14.820Z,96634.44
2022-12-01T10:04:41.170Z,96627.88
2022-12-01T10:07:07.490Z,96629.38
2022-12-01T10:09:33.792Z,96625.09
2022-12-01T10:12:00.139Z,96623.97
2022-12-01T10:14:26.699Z,96621.47
2022-12-01T10:16:53.034Z,96625.25
2022-12-01T10:19:19.355Z,96622.38
2022-12-01T10:21:45.654Z,96610.25
2022-12-01T10:24:11.962Z,96615.72
2022-12-01T10:26:38.335Z,96607.06
2022-12-01T10:29:04.641Z,96605.50
2022-12-01T10:31:30.992Z,96605.91
2022-12-01T10:33:57.346Z,96596.91
2022-12-01T10:36:23.657Z,96599.22
2022-12-01T10:38:49.972Z,96609.75
2022-12-01T10:41:16.293Z,96603.19
2022-12-01T10:43:42.601Z,96596.88
2022-12-01T10:46:08.963Z,96592.56
2022-12-01T10:48:35.298Z,96601.97
2022-12-01T10:51:01.600Z,96595.34
2022-12-01T10:53:27.968Z,96603.25
2022-12-01T10:55:54.300Z,96596.53
2022-12-01T10:58:20.621Z,96595.38
2022-12-01T11:01:02.555Z,96596.53
2022-12-01T11:03:29.280Z,96586.66
2022-12-01T11:05:55.702Z,96585.91
2022-12-01T11:08:22.017Z,96594.47
2022-12-01T11:10:48.339Z,96591.72
2022-12-01T11:13:14.651Z,96589.44
2022-12-01T11:15:40.955Z,96592.25
2022-12-01T11:18:07.288Z,96586.38
2022-12-01T11:20:33.679Z,96579.25
2022-12-01T11:23:03.051Z,96581.13
2022-12-01T11:25:29.401Z,96574.81
2022-12-01T11:27:55.738Z,96579.19
2022-12-01T11:30:22.052Z,96576.88
2022-12-01T11:32:48.404Z,96573.31
2022-12-01T11:35:14.708Z,96572.47
2022-12-01T11:37:42.019Z,96570.94
2022-12-01T11:40:08.373Z,96574.53
2022-12-01T11:42:34.688Z,96578.13
2022-12-01T11:45:01.002Z,96584.72
2022-12-01T11:47:27.346Z,96578.50
2022-12-01T11:49:53.950Z,96573.66
2022-12-01T11:52:20.440Z,96577.25
2022-12-01T11:54:46.747Z,96574.44
2022-12-01T11:57:33.140Z,96575.63
2022-12-01T11:59:59.344Z,96570.94
2022-12-01T12:02:25.717Z,96564.13
2022-12-01T12:04:52.053Z,96566.16
2022-12-01T12:07:18.530Z,96565.06
2022-12-01T12:09:45.331Z,96563.38
2022-12-01T12:12:11.722Z,96562.69
2022-12-01T12:14:38.043Z,96563.00
2022-12-01T12:17:04.339Z,96557.94
2022-12-01T12:19:34.260Z,96558.75
2022-12-01T12:22:11.736Z,96565.88
2022-12-01T12:24:38.053Z,96557.63
2022-12-01T12:27:04.352Z,96551.25
2022-12-01T12:29:30.674Z,96555.16
2022-12-01T12:31:56.990Z,96550.81
2022-12-01T12:34:23.295Z,96550.84
2022-12-01T12:36:49.674Z,96544.63
2022-12-01T12:39:16.920Z,96550.09
2022-12-01T12:41:43.487Z,96551.25
2022-12-01T12:44:09.864Z,96544.88
2022-12-01T12:46:36.202Z,96551.59
2022-12-01T12:51:48.879Z,96537.06
2022-12-01T12:54:15.230Z,96538.59
2022-12-01T12:56:41.601Z,96537.81
2022-12-01T12:59:07.944Z,96535.50
2022-12-01T13:01:34.434Z,96537.75
2022-12-01T13:04:00.823Z,96535.50
2022-12-01T13:06:27.160Z,96538.63
2022-12-01T13:08:53.499Z,96534.66
2022-12-01T13:11:19.820Z,96538.66
2022-12-01T13:13:46.148Z,96538.19
2022-12-01T13:16:12.946Z,96533.06
2022-12-01T13:18:39.298Z,96526.03
2022-12-01T13:21:05.658Z,96526.38
2022-12-01T13:23:31.984Z,96525.56
2022-12-01T13:25:58.301Z,96531.47
2022-12-01T13:28:24.642Z,96524.78
2022-12-01T13:30:51.004Z,96528.81
2022-12-01T13:33:17.321Z,96523.22
2022-12-01T13:35:43.659Z,96520.03
2022-12-01T13:38:10.024Z,96522.78
2022-12-01T13:40:36.345Z,96524.78
2022-12-01T13:43:08.850Z,96514.84
2022-12-01T13:45:37.048Z,96518.94
2022-12-01T13:48:03.369Z,96521.28
2022-12-01T13:50:29.673Z,96515.66
2022-12-01T13:52:56.008Z,96514.94
2022-12-01T13:55:22.342Z,96522.06
2022-12-01T13:57:48.676Z,96513.38
2022-12-01T14:00:15.003Z,96521.13
2022-12-01T14:02:41.486Z,96517.28
2022-12-01T14:05:07.937Z,96520.44
2022-12-01T14:07:34.309Z,96527.53
2022-12-01T14:10:00.706Z,96519.97
2022-12-01T14:12:27.014Z,96522.78
2022-12-01T14:14:53.594Z,96531.81
2022-12-01T14:17:20.175Z,96529.91
2022-12-01T14:19:46.496Z,96521.94
2022-12-01T14:22:12.797Z,96520.41
2022-12-01T14:24:39.121Z,96516.88
2022-12-01T14:27:05.422Z,96525.59
2022-12-01T14:29:31.741Z,96527.13
2022-12-01T14:31:58.066Z,96534.19
2022-12-01T14:34:24.384Z,96543.63
2022-12-01T14:36:50.702Z,96539.28
2022-12-01T14:39:17.072Z,96538.09
2022-12-01T14:41:43.395Z,96533.03
2022-12-01T14:44:09.707Z,96534.91
2022-12-01T14:46:36.175Z,96535.44
2022-12-01T14:49:04.406Z,96536.25
2022-12-01T14:51:30.721Z,96532.22
2022-12-01T14:53:57.055Z,96529.47
2022-12-01T14:56:23.363Z,96527.94
2022-12-01T14:58:49.675Z,96534.66
2022-12-01T15:01:16.082Z,96527.91
2022-12-01T15:03:42.485Z,96527.06
2022-12-01T15:06:08.800Z,96535.38
2022-12-01T15:09:10.690Z,96526.75
2022-12-01T15:11:21.422Z,96534.59
2022-12-01T15:13:47.810Z,96530.72
2022-12-01T15:16:14.204Z,96540.97
2022-12-01T15:18:41.715Z,96531.44
2022-12-01T15:21:08.042Z,96527.91
2022-12-01T15:23:34.412Z,96533.03
2022-12-01T15:50:58.438Z,96544.09
2022-12-01T15:53:28.705Z,96541.69
2022-12-01T16:10:16.202Z,96537.75
2022-12-01T16:20:54.084Z,96545.31
2022-12-01T16:23:20.399Z,96540.94
2022-12-01T16:25:46.710Z,96544.53
2022-12-01T16:28:13.042Z,96547.22
2022-12-01T16:30:39.401Z,96542.00
2022-12-01T16:33:05.777Z,96548.44
2022-12-01T16:35:32.159Z,96540.53
2022-12-01T16:37:58.463Z,96542.09
2022-12-01T16:40:24.764Z,96547.22
2022-12-01T16:42:51.097Z,96536.13
2022-12-01T16:45:17.396Z,96536.13
2022-12-01T16:47:43.708Z,96544.47
2022-12-01T16:50:10.060Z,96549.97
2022-12-01T16:52:44.175Z,96551.50
2022-12-01T16:55:11.490Z,96550.38
2022-12-01T16:57:37.797Z,96550.34
2022-12-01T17:00:04.211Z,96547.97
2022-12-01T17:02:30.599Z,96550.41
2022-12-01T17:04:56.928Z,96548.75
2022-12-01T17:07:23.242Z,96554.34
2022-12-01T17:09:49.580Z,96549.59
2022-12-01T17:12:15.882Z,96550.41
2022-12-01T17:14:42.174Z,96549.56
2022-12-01T17:17:08.473Z,96552.69
2022-12-01T17:19:34.778Z,96548.72
2022-12-01T17:22:01.066Z,96550.00
2022-12-01T17:24:27.378Z,96542.06
2022-12-01T17:26:53.696Z,96543.94
2022-12-01T17:29:20.031Z,96550.59
2022-12-01T17:31:46.374Z,96549.03
2022-12-01T17:34:12.681Z,96546.31
2022-12-01T17:36:38.994Z,96542.34
2022-12-01T17:39:05.426Z,96539.53
2022-12-01T17:41:31.747Z,96551.72
2022-12-01T17:43:58.063Z,96555.66
2022-12-01T17:46:24.458Z,96549.38
2022-12-01T17:48:50.800Z,96554.06
2022-12-01T17:51:17.147Z,96545.44
2022-12-01T17:53:43.524Z,96544.31
2022-12-01T17:56:09.815Z,96555.66
2022-12-01T17:58:36.116Z,96545.44
2022-12-01T18:01:02.442Z,96554.91
2022-12-01T18:03:28.751Z,96558.00
2022-12-01T18:05:55.057Z,96554.03
2022-12-01T18:08:21.391Z,96558.81
2022-12-01T18:10:47.701Z,96548.25
2022-12-01T18:13:14.007Z,96558.78
2022-12-01T18:15:40.376Z,96561.97
2022-12-01T18:18:06.715Z,96556.00
2022-12-01T18:20:33.018Z,96559.16
2022-12-01T18:22:59.344Z,96553.69
2022-12-01T18:25:25.665Z,96546.63
2022-12-01T18:27:51.975Z,96555.63
2022-12-01T18:30:18.305Z,96545.44
2022-12-01T18:32:44.641Z,96554.03
2022-12-01T18:35:10.939Z,96550.13
2022-12-01T18:37:37.279Z,96548.59
2022-12-01T18:40:03.584Z,96547.47
2022-12-01T18:42:29.883Z,96551.66
2022-12-01T18:44:56.207Z,96564.16
2022-12-01T18:47:22.520Z,96548.47
2022-12-01T18:49:48.830Z,96553.13
2022-12-01T18:52:15.162Z,96546.94
2022-12-01T18:54:41.477Z,96546.88
2022-12-01T18:57:07.785Z,96547.66
2022-12-01T18:59:34.143Z,96546.88
2022-12-01T19:02:00.457Z,96548.47
2022-12-01T19:04:26.768Z,96547.56
2022-12-01T19:06:53.095Z,96535.84
2022-12-01T19:09:19.403Z,96540.97
2022-12-01T19:11:45.711Z,96539.00
2022-12-01T19:14:12.049Z,96537.88
2022-12-01T19:16:38.432Z,96541.31
2022-12-01T19:19:04.772Z,96545.66
2022-12-01T19:21:31.103Z,96535.75
2022-12-01T19:23:57.417Z,96540.53
2022-12-01T19:26:23.733Z,96544.47
2022-12-01T19:28:50.093Z,96549.97
2022-12-01T19:31:16.533Z,96548.47
2022-12-01T19:33:42.908Z,96546.94
2022-12-01T19:36:09.219Z,96555.22
2022-12-01T19:38:35.519Z,96542.59
2022-12-01T19:41:01.820Z,96543.72
2022-12-01T19:43:28.152Z,96544.97
2022-12-01T19:45:54.505Z,96550.09
2022-12-01T19:48:20.834Z,96549.34
2022-12-01T19:50:47.151Z,96553.66
2022-12-01T19:53:13.494Z,96557.91
2022-12-01T19:55:39.806Z,96551.16
2022-12-01T19:58:06.125Z,96553.97
2022-12-01T20:00:32.831Z,96559.53
2022-12-01T20:02:59.219Z,96548.22
2022-12-01T20:05:25.616Z,96561.19
2022-12-01T20:07:51.962Z,96552.84
2022-12-01T20:10:18.333Z,96554.81
2022-12-01T20:12:44.681Z,96560.69
2022-12-01T20:15:11.043Z,96551.00
2022-12-01T20:17:37.341Z,96562.03
2022-12-01T20:20:03.654Z,96552.16
2022-12-01T20:22:29.955Z,96562.38
2022-12-01T20:24:56.256Z,96558.88
2022-12-01T20:27:22.563Z,96565.53
2022-12-01T20:29:48.855Z,96564.25
2022-12-01T20:32:19.250Z,96560.31
2022-12-01T20:34:48.639Z,96557.63
2022-12-01T20:37:15.257Z,96556.56
2022-12-01T20:39:41.552Z,96563.88
2022-12-01T20:42:07.863Z,96561.97
2022-12-01T20:44:34.263Z,96556.53
2022-12-01T20:47:00.574Z,96558.00
2022-12-01T20:49:26.890Z,96573.38
2022-12-01T20:51:53.186Z,96565.19
2022-12-01T20:54:28.316Z,96563.22
2022-12-01T20:56:55.335Z,96572.28
2022-12-01T20:59:21.640Z,96562.06
2022-12-01T21:01:47.930Z,96565.91
2022-12-01T21:04:14.252Z,96569.09
2022-12-01T21:06:40.547Z,96562.91
2022-12-01T21:09:06.842Z,96565.22
2022-12-01T21:11:33.200Z,96564.09
2022-12-01T21:13:59.506Z,96558.91
2022-12-01T21:16:25.828Z,96560.19
2022-12-01T21:18:52.194Z,96554.25
2022-12-01T21:21:18.522Z,96562.78
2022-12-01T21:23:44.833Z,96549.47
2022-12-01T21:26:11.164Z,96548.94
2022-12-01T21:28:37.477Z,96554.81
2022-12-01T21:31:03.845Z,96551.44
2022-12-01T21:33:30.214Z,96548.28
2022-12-01T21:35:56.521Z,96551.88
2022-12-01T21:38:22.846Z,96545.53
2022-12-01T21:40:49.176Z,96539.56
2022-12-01T21:43:15.482Z,96547.81
2022-12-01T21:45:41.847Z,96543.50
2022-12-01T21:48:08.236Z,96544.13
2022-12-01T21:50:34.557Z,96549.50
2022-12-01T21:53:00.867Z,96549.16
2022-12-01T21:55:27.198Z,96553.41
2022-12-01T21:57:53.500Z,96550.22
2022-12-01T22:00:19.813Z,96551.47
2022-12-01T22:02:46.213Z,96545.91
2022-12-01T22:05:12.661Z,96549.69
2022-12-01T22:07:38.996Z,96556.44
2022-12-01T22:10:09.126Z,96557.22
2022-12-01T22:12:35.670Z,96546.94
2022-12-01T22:15:01.995Z,96539.13
2022-12-01T22:17:28.367Z,96545.00
2022-12-01T22:19:54.676Z,96536.59
2022-12-01T22:22:20.980Z,96538.19
2022-12-01T22:24:47.306Z,96540.53
2022-12-01T22:27:13.624Z,96545.31
2022-12-01T22:29:39.922Z,96539.78
2022-12-01T22:32:06.247Z,96542.53
2022-12-01T22:34:32.544Z,96536.69
2022-12-01T22:36:58.836Z,96532.41
2022-12-01T22:39:25.159Z,96537.44
2022-12-01T22:41:51.474Z,96528.81
2022-12-01T22:44:17.776Z,96534.28
2022-12-01T22:46:44.165Z,96537.81
2022-12-01T22:49:10.529Z,96527.28
2022-12-01T22:51:36.841Z,96537.13
2022-12-01T22:54:03.178Z,96545.41
2022-12-01T22:56:29.496Z,96530.44
2022-12-01T22:58:55.796Z,96533.16
2022-12-01T23:01:22.177Z,96525.66
2022-12-01T23:03:48.536Z,96523.69
2022-12-01T23:06:14.839Z,96525.63
2022-12-01T23:08:41.156Z,96522.91
2022-12-01T23:11:07.476Z,96524.16
2022-12-01T23:13:33.789Z,96524.00
2022-12-01T23:16:00.214Z,96525.53
2022-12-01T23:18:26.591Z,96517.00
2022-12-01T23:20:52.903Z,96517.78
2022-12-01T23:23:19.334Z,96512.34
2022-12-01T23:25:45.637Z,96516.16
2022-12-01T23:28:11.947Z,96512.63
2022-12-01T23:30:38.276Z,96511.56
2022-12-01T23:33:04.591Z,96509.13
2022-12-01T23:35:30.896Z,96509.91
2022-12-01T23:37:57.215Z,96512.75
2022-12-01T23:40:23.511Z,96511.78
2022-12-01T23:42:49.817Z,96505.56
2022-12-01T23:45:16.133Z,96505.19
2022-12-01T23:47:42.467Z,96508.28
2022-12-01T23:50:08.782Z,96493.28
2022-12-01T23:52:35.107Z,96488.84
2022-12-01T23:55:01.420Z,96484.53
2022-12-01T23:57:27.728Z,96474.31
2022-12-01T23:59:54.071Z,96482.63
